Atascosa, Texas
Current Conditions -  °F | °C
As of 2:55 AM on Saturday 22 Nov 2014 (Local Time) from KCVB Reporting Station
Overcast Overcast  
Wind Chill: 68°   Ceiling: 1100
Heat Index: 68°   Visibility: 7mi
Dew Point: 65°   Wind: 8mph
Humidity: 91%   Direction: 130°SE
Pressure: 30.02"   Gusts: NA
Location:  29.28°N, 98.74°W
Report Text: KCVB 220855Z AUTO 13007KT 7SM OVC011 20/19 A3002 RMK AO2 LTG DSNT N T02000185
Loading
Personal Weather Stations






























Interactive Weather Map New forecast layout! Learn more

10-Day Weather Forecast

Advertisements
Track Severe Weather on mobile